Trans Exeter — 9HA2572 — position and weather

sailwx.info

Track history (hours):
 
Tides and Currents Weather Stations Pressure Air Temp Water Temp Dewpoint Dewpoint Depression Visibility Wind Speed Wind Dir Waves Ship Positions

Trans Exeter

Last reported at 2016-Dec-05 08:33 UTC. Time now 2016-Dec-05 20:41 UTC.
Position N 44°30' E 012°22'.

Length 118 m; draft 5.8 m.

Type: Ship (hazmat cat C). MMSI: 248908000.

Date/timePositionNaut miles runAvg speedWind from/ knotsBaromVisibWave heightAir tempDewpointWater temp
2016-Dec-05 08:33N 44°30' E 012°22'  
2016-Dec-02 23:26N 37°26' E 023°59'30810.0
2016-Dec-01 16:31N 40°50' E 028°57'1313.5
2016-Dec-01 15:33N 40°46' E 029°14'9 9.2
2016-Dec-01 14:32N 40°42' E 029°25'0 0.0
2016-Dec-01 01:24N 40°42' E 029°25'0 0.0
2016-Nov-30 20:30N 40°42' E 029°25'2 0.3
2016-Nov-30 13:31N 40°43' E 029°27'4 0.2
2016-Nov-29 09:05N 40°46' E 029°32'3 4.2
2016-Nov-29 08:25N 40°44' E 029°28'8 9.2
2016-Nov-29 07:33N 40°43' E 029°18'1412.2
2016-Nov-29 06:24N 40°44' E 028°59'26411.4
2016-Nov-28 07:20N 37°56' E 024°36'1114.1
2016-Nov-28 06:33N 37°49' E 024°26'1413.6
2016-Nov-28 05:33N 37°39' E 024°14'1514.1
2016-Nov-28 04:30N 37°26' E 024°04'45712.7
2016-Nov-26 16:33N 36°38' E 014°35'1414.0
2016-Nov-26 15:34N 36°43' E 014°19'1414.1
2016-Nov-26 14:33N 36°49' E 014°03'1414.1
2016-Nov-26 13:33N 36°55' E 013°47'  
Track history (hours):
 
Tides and Currents Weather Stations Pressure Air Temp Water Temp Dewpoint Dewpoint Depression Visibility Wind Speed Wind Dir Waves Ship Positions

Trans Exeter

Last reported at 2016-Dec-05 08:33 UTC. Time now 2016-Dec-05 20:41 UTC.
Position N 44°30' E 012°22'.

Length 118 m; draft 5.8 m.

Type: Ship (hazmat cat C). MMSI: 248908000.

Date/timePositionNaut miles runAvg speedWind from/ knotsBaromVisibWave heightAir tempDewpointWater temp
2016-Dec-05 08:33N 44°30' E 012°22'  
2016-Dec-02 23:26N 37°26' E 023°59'30810.0
2016-Dec-01 16:31N 40°50' E 028°57'1313.5
2016-Dec-01 15:33N 40°46' E 029°14'9 9.2
2016-Dec-01 14:32N 40°42' E 029°25'0 0.0
2016-Dec-01 01:24N 40°42' E 029°25'0 0.0
2016-Nov-30 20:30N 40°42' E 029°25'2 0.3
2016-Nov-30 13:31N 40°43' E 029°27'4 0.2
2016-Nov-29 09:05N 40°46' E 029°32'3 4.2
2016-Nov-29 08:25N 40°44' E 029°28'8 9.2
2016-Nov-29 07:33N 40°43' E 029°18'1412.2
2016-Nov-29 06:24N 40°44' E 028°59'26411.4
2016-Nov-28 07:20N 37°56' E 024°36'1114.1
2016-Nov-28 06:33N 37°49' E 024°26'1413.6
2016-Nov-28 05:33N 37°39' E 024°14'1514.1
2016-Nov-28 04:30N 37°26' E 024°04'45712.7
2016-Nov-26 16:33N 36°38' E 014°35'1414.0
2016-Nov-26 15:34N 36°43' E 014°19'1414.1
2016-Nov-26 14:33N 36°49' E 014°03'1414.1
2016-Nov-26 13:33N 36°55' E 013°47'  

Dump ship's entire track history